Map

Track Data

SID SEASON NUMBER BASIN SUBBASIN NAME ISO_TIME NATURE LAT LON WMO_WIND WMO_PRES WMO_AGENCY TRACK_TYPE DIST2LAND LANDFALL IFLAG USA_AGENCY USA_ATCF_ID USA_LAT USA_LON USA_RECORD USA_STATUS USA_WIND USA_PRES USA_SSHS USA_R34_NE USA_R34_SE USA_R34_SW USA_R34_NW USA_R50_NE USA_R50_SE USA_R50_SW USA_R50_NW USA_R64_NE USA_R64_SE USA_R64_SW USA_R64_NW USA_POCI USA_ROCI USA_RMW USA_EYE TOKYO_LAT TOKYO_LON TOKYO_GRADE TOKYO_WIND TOKYO_PRES TOKYO_R50_DIR TOKYO_R50_LONG TOKYO_R50_SHORT TOKYO_R30_DIR TOKYO_R30_LONG TOKYO_R30_SHORT TOKYO_LAND CMA_LAT CMA_LON CMA_CAT CMA_WIND CMA_PRES HKO_LAT HKO_LON HKO_CAT HKO_WIND HKO_PRES NEWDELHI_LAT NEWDELHI_LON NEWDELHI_GRADE NEWDELHI_WIND NEWDELHI_PRES NEWDELHI_CI NEWDELHI_DP NEWDELHI_POCI REUNION_LAT REUNION_LON REUNION_TYPE REUNION_WIND REUNION_PRES REUNION_TNUM REUNION_CI REUNION_RMW REUNION_R34_NE REUNION_R34_SE REUNION_R34_SW REUNION_R34_NW REUNION_R50_NE REUNION_R50_SE REUNION_R50_SW REUNION_R50_NW REUNION_R64_NE REUNION_R64_SE REUNION_R64_SW REUNION_R64_NW BOM_LAT BOM_LON BOM_TYPE BOM_WIND BOM_PRES BOM_TNUM BOM_CI BOM_RMW BOM_R34_NE BOM_R34_SE BOM_R34_SW BOM_R34_NW BOM_R50_NE BOM_R50_SE BOM_R50_SW BOM_R50_NW BOM_R64_NE BOM_R64_SE BOM_R64_SW BOM_R64_NW BOM_ROCI BOM_POCI BOM_EYE BOM_POS_METHOD BOM_PRES_METHOD NADI_LAT NADI_LON NADI_CAT NADI_WIND NADI_PRES WELLINGTON_LAT WELLINGTON_LON WELLINGTON_WIND WELLINGTON_PRES DS824_LAT DS824_LON DS824_STAGE DS824_WIND DS824_PRES TD9636_LAT TD9636_LON TD9636_STAGE TD9636_WIND TD9636_PRES TD9635_LAT TD9635_LON TD9635_WIND TD9635_PRES TD9635_ROCI NEUMANN_LAT NEUMANN_LON NEUMANN_CLASS NEUMANN_WIND NEUMANN_PRES MLC_LAT MLC_LON MLC_CLASS MLC_WIND MLC_PRES USA_GUST BOM_GUST BOM_GUST_PER REUNION_GUST REUNION_GUST_PER USA_SEAHGT USA_SEARAD_NE USA_SEARAD_SE USA_SEARAD_SW USA_SEARAD_NW STORM_SPEED STORM_DIR
1938033S17118 1938 11 SI WA NOT_NAMED 1938-02-01 23:00:00 NR -17.1000 117.900 main 358 348 __________O___ -1 -17.1000 117.900 7 5 159
1938033S17118 1938 11 SI WA NOT_NAMED 1938-02-02 00:00:00 NR -17.1739 117.944 main 348 348 __________P___ -1 -17.1739 117.944 7 4 187
1938033S17118 1938 11 SI WA NOT_NAMED 1938-02-02 01:00:00 NR -17.2359 117.890 bom main 348 327 ______O___P___ -1 -17.2000 117.600 -17.2479 117.987 7 4 0
1938033S17118 1938 11 SI WA NOT_NAMED 1938-02-02 03:00:00 NR -17.3648 117.950 main 327 313 ______P___P___ -1 -17.3022 117.709 -17.3962 118.070 7 4 155
1938033S17118 1938 11 SI WA NOT_NAMED 1938-02-02 06:00:00 NR -17.5509 118.046 main 302 288 ______P___P___ -1 -17.4588 117.866 -17.6200 118.182 7 4 154
1938033S17118 1938 11 SI WA NOT_NAMED 1938-02-02 09:00:00 NR -17.7352 118.136 main 288 263 ______P___P___ -1 -17.6238 118.007 -17.8466 118.265 7 4 156
1938033S17118 1938 11 SI WA NOT_NAMED 1938-02-02 11:00:00 NR -17.8705 118.193 main 263 263 ______P___O___ -1 -17.7411 118.087 -18.0000 118.300 7 4 158
1938033S17118 1938 11 SI WA NOT_NAMED 1938-02-02 12:00:00 NR -17.9399 118.216 main 263 239 ______P___P___ -1 -17.8025 118.122 -18.0774 118.310 7 4 169
1938033S17118 1938 11 SI WA NOT_NAMED 1938-02-02 15:00:00 NR -18.1536 118.256 bom main 228 207 ______O___P___ -1 -18.0000 118.200 -18.3071 118.312 7 4 174
1938033S17118 1938 11 SI WA NOT_NAMED 1938-02-02 18:00:00 NR -18.3692 118.259 main 207 192 ______P___P___ -1 -18.2173 118.236 -18.5210 118.283 7 4 0
1938033S17118 1938 11 SI WA NOT_NAMED 1938-02-02 21:00:00 NR -18.5706 118.236 main 192 182 ______P___P___ -1 -18.4376 118.236 -18.7035 118.236 7 4 187
1938033S17118 1938 11 SI WA NOT_NAMED 1938-02-02 23:00:00 NR -18.6880 118.211 main 182 182 ______P___O___ -1 -18.5759 118.222 -18.8000 118.200 7 3 195
1938033S17118 1938 11 SI WA NOT_NAMED 1938-02-03 00:00:00 TS -18.7236 118.199 main 182 182 ______P__OP___ -1 -18.6401 118.212 -18.6000 118.200 TC 35 997 -18.8380 118.185 7 2 200
1938033S17118 1938 11 SI WA NOT_NAMED 1938-02-03 01:00:00 TS -18.7523 118.184 997 bom main 173 173 ______O__PP___ -1 -18.7000 118.200 997 4 -18.6209 118.179 TC -18.8702 118.170 7 2 203
1938033S17118 1938 11 SI WA NOT_NAMED 1938-02-03 03:00:00 TS -18.8053 118.155 main 173 167 ______P__PP___ -1 -18.7982 118.186 -18.6626 118.138 TC -18.9195 118.136 7 2 213
1938033S17118 1938 11 SI WA NOT_NAMED 1938-02-03 06:00:00 TS -18.8674 118.104 main 167 167 ______P__PP___ -1 -18.9128 118.154 -18.7251 118.075 TC -18.9643 118.082 7 2 220
1938033S17118 1938 11 SI WA NOT_NAMED 1938-02-03 09:00:00 TS -18.9232 118.051 main 167 156 ______P__PP___ -1 -18.9937 118.109 -18.7877 118.013 TC -18.9881 118.030 7 1 226
1938033S17118 1938 11 SI WA NOT_NAMED 1938-02-03 11:00:00 TS -18.9537 118.015 main 156 156 ______P__PO___ -1 -19.0318 118.072 -18.8293 117.971 TC -19.0000 118.000 7 1 227
1938033S17118 1938 11 SI WA NOT_NAMED 1938-02-03 12:00:00 TS -18.9695 117.999 main 156 156 ______P__PP___ -1 -19.0467 118.052 -18.8502 117.950 TC -19.0117 117.993 7 1 224
1938033S17118 1938 11 SI WA NOT_NAMED 1938-02-03 15:00:00 TS -19.0106 117.951 main 156 156 ______P__PP___ -1 -19.0778 117.985 -18.9127 117.888 TC -19.0412 117.980 7 1 233
1938033S17118 1938 11 SI WA NOT_NAMED 1938-02-03 18:00:00 TS -19.0443 117.900 main 157 146 ______P__PP___ -1 -19.0930 117.909 -18.9751 117.825 TC -19.0649 117.967 7 1 240
1938033S17118 1938 11 SI WA NOT_NAMED 1938-02-03 21:00:00 TS -19.0739 117.841 main 148 148 ______P__PP___ -1 -19.0983 117.824 -19.0376 117.763 TC -19.0859 117.937 7 1 242
1938033S17118 1938 11 SI WA NOT_NAMED 1938-02-03 23:00:00 TS -19.0928 117.795 main 148 148 ______P__PO___ -1 -19.0991 117.763 -19.0792 117.721 TC -19.1000 117.900 7 2 248
1938033S17118 1938 11 SI WA NOT_NAMED 1938-02-04 00:00:00 TS -19.1030 117.768 main 148 148 ______P__OP___ -1 -19.0995 117.732 -19.1000 117.700 TC -19.1096 117.871 7 2 254
1938033S17118 1938 11 SI WA NOT_NAMED 1938-02-04 01:00:00 TS -19.1079 117.733 bom main 151 151 ______O__PP___ -1 -19.1000 117.700 -19.1043 117.663 TC -19.1193 117.837 7 2 262
1938033S17118 1938 11 SI WA NOT_NAMED 1938-02-04 03:00:00 TS -19.1180 117.660 main 151 151 ______P__PP___ -1 -19.1023 117.634 -19.1127 117.588 TC -19.1388 117.760 7 2 262
1938033S17118 1938 11 SI WA NOT_NAMED 1938-02-04 06:00:00 TS -19.1335 117.544 main 158 158 ______P__PP___ -1 -19.1087 117.531 -19.1254 117.475 TC -19.1664 117.627 7 2 262
1938033S17118 1938 11 SI WA NOT_NAMED 1938-02-04 09:00:00 TS -19.1484 117.425 main 162 152 ______P__PP___ -1 -19.1181 117.423 -19.1380 117.363 TC -19.1891 117.488 7 2 263
1938033S17118 1938 11 SI WA NOT_NAMED 1938-02-04 11:00:00 TS -19.1574 117.345 main 158 158 ______P__PO___ -1 -19.1259 117.349 -19.1464 117.288 TC -19.2000 117.400 7 2 263
1938033S17118 1938 11 SI WA NOT_NAMED 1938-02-04 12:00:00 TS -19.1615 117.307 main 158 158 ______P__PP___ -1 -19.1302 117.311 -19.1505 117.250 TC -19.2039 117.359 7 2 264
1938033S17118 1938 11 SI WA NOT_NAMED 1938-02-04 15:00:00 TS -19.1724 117.194 main 162 159 ______P__PP___ -1 -19.1443 117.196 -19.1630 117.138 TC -19.2098 117.247 7 2 265
1938033S17118 1938 11 SI WA NOT_NAMED 1938-02-04 18:00:00 TS -19.1790 117.078 main 159 157 ______P__PP___ -1 -19.1600 117.079 -19.1754 117.025 TC -19.2092 117.148 7 2 266
1938033S17118 1938 11 SI WA NOT_NAMED 1938-02-04 21:00:00 TS -19.1866 116.966 main 157 156 ______P__PP___ -1 -19.1768 116.960 -19.1877 116.913 TC -19.2043 117.058 7 2 266
1938033S17118 1938 11 SI WA NOT_NAMED 1938-02-04 23:00:00 TS -19.1928 116.886 main 156 156 ______P__PO___ -1 -19.1883 116.880 -19.1959 116.838 TC -19.2000 117.000 7 3 266
1938033S17118 1938 11 SI WA NOT_NAMED 1938-02-05 00:00:00 TS -19.1961 116.827 main 156 156 ______P__O____ -1 -19.1942 116.840 -19.2000 116.800 TC 7 2 265
1938033S17118 1938 11 SI WA NOT_NAMED 1938-02-05 01:00:00 NR -19.2000 116.800 bom main 156 ______O_______ -1 -19.2000 116.800 TC 7 2 0

About IBTrACS Database

This database is a web-friendly format of International Best Track Archive for Climate Stewardship (IBTrACS), a global best track data archive curated by NOAA dating back to 1842.

Updated: 2021-11-26